sensor_id;sensor_type;location;lat;lon;timestamp;temperature;humidity
29321;DHT22;16323;51.130;6.612;2023-02-15T08:35:16;15.10;47.00
29321;DHT22;16323;51.130;6.612;2023-02-15T08:37:43;15.70;48.90
29321;DHT22;16323;51.130;6.612;2023-02-15T08:40:11;15.80;50.10
29321;DHT22;16323;51.130;6.612;2023-02-15T08:42:38;15.80;49.30
29321;DHT22;16323;51.130;6.612;2023-02-15T08:45:06;15.80;49.20
29321;DHT22;16323;51.130;6.612;2023-02-15T08:47:33;15.70;49.10
29321;DHT22;16323;51.130;6.612;2023-02-15T08:49:59;15.70;48.70
29321;DHT22;16323;51.130;6.612;2023-02-15T08:52:27;15.70;50.00
29321;DHT22;16323;51.130;6.612;2023-02-15T08:54:54;15.70;48.40
29321;DHT22;16323;51.130;6.612;2023-02-15T08:57:21;15.80;48.50
29321;DHT22;16323;51.130;6.612;2023-02-15T08:59:48;15.80;49.60
29321;DHT22;16323;51.130;6.612;2023-02-15T09:02:16;15.80;48.10
29321;DHT22;16323;51.130;6.612;2023-02-15T09:04:43;15.90;48.30
29321;DHT22;16323;51.130;6.612;2023-02-15T09:07:09;15.90;48.20
29321;DHT22;16323;51.130;6.612;2023-02-15T09:09:38;15.90;47.90
29321;DHT22;16323;51.130;6.612;2023-02-15T09:12:05;16.00;48.00
29321;DHT22;16323;51.130;6.612;2023-02-15T09:14:33;15.90;48.00
29321;DHT22;16323;51.130;6.612;2023-02-15T09:16:59;15.90;48.10
29321;DHT22;16323;51.130;6.612;2023-02-15T09:19:26;15.90;48.10
29321;DHT22;16323;51.130;6.612;2023-02-15T09:21:53;15.90;48.20
29321;DHT22;16323;51.130;6.612;2023-02-15T09:24:20;15.90;48.20
29321;DHT22;16323;51.130;6.612;2023-02-15T09:26:48;15.90;48.20
29321;DHT22;16323;51.130;6.612;2023-02-15T09:29:17;15.90;48.20
29321;DHT22;16323;51.130;6.612;2023-02-15T09:31:46;15.90;48.30
29321;DHT22;16323;51.130;6.612;2023-02-15T09:34:15;15.90;48.20
29321;DHT22;16323;51.130;6.612;2023-02-15T09:36:42;15.90;48.10
29321;DHT22;16323;51.130;6.612;2023-02-15T09:39:11;15.90;48.20
29321;DHT22;16323;51.130;6.612;2023-02-15T09:45:04;16.00;48.10
29321;DHT22;16323;51.130;6.612;2023-02-15T09:47:48;16.00;48.10
29321;DHT22;16323;51.130;6.612;2023-02-15T09:50:27;16.10;48.00
29321;DHT22;16323;51.130;6.612;2023-02-15T09:53:10;16.10;48.10
29321;DHT22;16323;51.130;6.612;2023-02-15T09:55:48;16.10;48.20
29321;DHT22;16323;51.130;6.612;2023-02-15T09:58:25;16.10;48.10
29321;DHT22;16323;51.130;6.612;2023-02-15T10:01:05;16.10;48.10
29321;DHT22;16323;51.130;6.612;2023-02-15T10:03:51;16.00;48.10
29321;DHT22;16323;51.130;6.612;2023-02-15T10:06:28;16.00;48.10
29321;DHT22;16323;51.130;6.612;2023-02-15T10:09:05;16.00;48.10
29321;DHT22;16323;51.130;6.612;2023-02-15T10:11:43;16.00;48.20
29321;DHT22;16323;51.130;6.612;2023-02-15T10:14:35;16.00;48.20
29321;DHT22;16323;51.130;6.612;2023-02-15T10:17:14;16.00;48.30
29321;DHT22;16323;51.130;6.612;2023-02-15T10:19:46;16.00;48.30
29321;DHT22;16323;51.130;6.612;2023-02-15T10:22:27;16.00;48.40
29321;DHT22;16323;51.130;6.612;2023-02-15T10:25:15;16.00;48.40
29321;DHT22;16323;51.130;6.612;2023-02-15T10:27:47;16.00;48.50
29321;DHT22;16323;51.130;6.612;2023-02-15T10:30:15;16.00;48.40
29321;DHT22;16323;51.130;6.612;2023-02-15T10:32:55;16.10;48.50
29321;DHT22;16323;51.130;6.612;2023-02-15T10:35:31;16.10;48.50
29321;DHT22;16323;51.130;6.612;2023-02-15T10:38:13;16.10;48.70
29321;DHT22;16323;51.130;6.612;2023-02-15T10:40:49;16.20;48.90
29321;DHT22;16323;51.130;6.612;2023-02-15T10:43:35;16.20;49.20
29321;DHT22;16323;51.130;6.612;2023-02-15T10:46:14;16.20;49.40
29321;DHT22;16323;51.130;6.612;2023-02-15T10:49:02;16.20;49.70
29321;DHT22;16323;51.130;6.612;2023-02-15T10:51:42;16.20;50.30
29321;DHT22;16323;51.130;6.612;2023-02-15T10:54:22;16.20;50.50
29321;DHT22;16323;51.130;6.612;2023-02-15T10:57:02;16.20;50.40
29321;DHT22;16323;51.130;6.612;2023-02-15T10:59:43;16.20;50.50
29321;DHT22;16323;51.130;6.612;2023-02-15T11:02:18;16.20;50.50
29321;DHT22;16323;51.130;6.612;2023-02-15T11:05:02;16.20;50.50
29321;DHT22;16323;51.130;6.612;2023-02-15T11:07:34;16.20;50.50
29321;DHT22;16323;51.130;6.612;2023-02-15T11:10:13;16.20;50.50
29321;DHT22;16323;51.130;6.612;2023-02-15T11:12:46;16.10;50.30
29321;DHT22;16323;51.130;6.612;2023-02-15T11:15:17;16.10;50.40
29321;DHT22;16323;51.130;6.612;2023-02-15T11:17:52;16.10;50.30
29321;DHT22;16323;51.130;6.612;2023-02-15T11:20:25;16.10;50.60
29321;DHT22;16323;51.130;6.612;2023-02-15T11:22:54;16.20;50.80
29321;DHT22;16323;51.130;6.612;2023-02-15T11:25:25;16.20;51.30
29321;DHT22;16323;51.130;6.612;2023-02-15T11:27:55;16.10;51.30
29321;DHT22;16323;51.130;6.612;2023-02-15T11:30:24;16.10;51.50
29321;DHT22;16323;51.130;6.612;2023-02-15T11:32:53;16.20;51.80
29321;DHT22;16323;51.130;6.612;2023-02-15T11:35:27;16.20;52.10
29321;DHT22;16323;51.130;6.612;2023-02-15T11:38:02;16.20;52.10
29321;DHT22;16323;51.130;6.612;2023-02-15T11:40:34;16.20;52.10
29321;DHT22;16323;51.130;6.612;2023-02-15T11:43:06;16.20;52.30
29321;DHT22;16323;51.130;6.612;2023-02-15T11:45:37;16.20;52.40
29321;DHT22;16323;51.130;6.612;2023-02-15T11:48:10;16.20;52.50
29321;DHT22;16323;51.130;6.612;2023-02-15T11:50:39;16.20;52.60
29321;DHT22;16323;51.130;6.612;2023-02-15T11:53:12;16.20;52.70
29321;DHT22;16323;51.130;6.612;2023-02-15T11:55:41;16.20;52.90
29321;DHT22;16323;51.130;6.612;2023-02-15T11:58:16;16.20;53.10
29321;DHT22;16323;51.130;6.612;2023-02-15T12:00:51;16.20;53.10
29321;DHT22;16323;51.130;6.612;2023-02-15T12:03:24;16.20;53.20
29321;DHT22;16323;51.130;6.612;2023-02-15T12:06:00;16.20;53.10
29321;DHT22;16323;51.130;6.612;2023-02-15T12:08:34;16.20;53.20
29321;DHT22;16323;51.130;6.612;2023-02-15T12:11:07;16.20;53.20
29321;DHT22;16323;51.130;6.612;2023-02-15T12:13:54;16.20;53.30
29321;DHT22;16323;51.130;6.612;2023-02-15T12:16:21;16.30;53.50
29321;DHT22;16323;51.130;6.612;2023-02-15T12:18:50;16.30;53.50
29321;DHT22;16323;51.130;6.612;2023-02-15T12:21:27;16.30;53.50
29321;DHT22;16323;51.130;6.612;2023-02-15T12:23:57;16.30;53.70
29321;DHT22;16323;51.130;6.612;2023-02-15T12:26:26;16.30;53.80
29321;DHT22;16323;51.130;6.612;2023-02-15T12:28:54;16.30;54.00
29321;DHT22;16323;51.130;6.612;2023-02-15T12:31:27;16.30;54.10
29321;DHT22;16323;51.130;6.612;2023-02-15T12:34:00;16.30;54.20
29321;DHT22;16323;51.130;6.612;2023-02-15T12:36:31;16.30;54.30
29321;DHT22;16323;51.130;6.612;2023-02-15T12:39:19;16.30;54.40
29321;DHT22;16323;51.130;6.612;2023-02-15T12:42:01;16.30;54.50
29321;DHT22;16323;51.130;6.612;2023-02-15T12:44:30;16.30;54.60
29321;DHT22;16323;51.130;6.612;2023-02-15T12:46:59;16.30;54.70
29321;DHT22;16323;51.130;6.612;2023-02-15T12:49:27;16.30;54.60
29321;DHT22;16323;51.130;6.612;2023-02-15T12:51:57;16.30;54.50
29321;DHT22;16323;51.130;6.612;2023-02-15T12:54:36;16.30;54.50
29321;DHT22;16323;51.130;6.612;2023-02-15T12:57:22;16.30;54.60
29321;DHT22;16323;51.130;6.612;2023-02-15T12:59:52;16.30;54.60
29321;DHT22;16323;51.130;6.612;2023-02-15T13:02:30;16.40;54.90
29321;DHT22;16323;51.130;6.612;2023-02-15T13:05:05;16.50;58.50
29321;DHT22;16323;51.130;6.612;2023-02-15T13:07:37;16.40;57.00
29321;DHT22;16323;51.130;6.612;2023-02-15T13:10:05;16.40;57.00
29321;DHT22;16323;51.130;6.612;2023-02-15T13:12:46;16.40;57.10
29321;DHT22;16323;51.130;6.612;2023-02-15T13:15:25;16.30;57.20
29321;DHT22;16323;51.130;6.612;2023-02-15T13:17:54;16.40;57.10
29321;DHT22;16323;51.130;6.612;2023-02-15T13:20:22;16.30;57.40
29321;DHT22;16323;51.130;6.612;2023-02-15T13:22:53;16.30;57.50
29321;DHT22;16323;51.130;6.612;2023-02-15T13:25:23;16.30;57.90
29321;DHT22;16323;51.130;6.612;2023-02-15T13:27:53;16.30;58.00
29321;DHT22;16323;51.130;6.612;2023-02-15T13:30:24;16.30;58.10
29321;DHT22;16323;51.130;6.612;2023-02-15T13:32:54;16.40;58.40
29321;DHT22;16323;51.130;6.612;2023-02-15T13:35:22;16.40;58.50
29321;DHT22;16323;51.130;6.612;2023-02-15T13:38:20;16.40;58.80
29321;DHT22;16323;51.130;6.612;2023-02-15T13:40:55;16.40;59.20
29321;DHT22;16323;51.130;6.612;2023-02-15T13:43:33;16.40;59.20
29321;DHT22;16323;51.130;6.612;2023-02-15T13:46:11;16.50;59.70
29321;DHT22;16323;51.130;6.612;2023-02-15T13:48:45;16.50;59.90
29321;DHT22;16323;51.130;6.612;2023-02-15T13:51:21;16.50;60.00
29321;DHT22;16323;51.130;6.612;2023-02-15T13:54:05;16.50;60.20
29321;DHT22;16323;51.130;6.612;2023-02-15T13:56:43;16.50;60.30
29321;DHT22;16323;51.130;6.612;2023-02-15T13:59:38;16.50;60.60
29321;DHT22;16323;51.130;6.612;2023-02-15T14:08:11;16.50;61.40
29321;DHT22;16323;51.130;6.612;2023-02-15T14:10:49;16.50;61.40
29321;DHT22;16323;51.130;6.612;2023-02-15T14:13:45;16.50;61.70
29321;DHT22;16323;51.130;6.612;2023-02-15T14:16:22;16.60;61.40
29321;DHT22;16323;51.130;6.612;2023-02-15T14:18:56;16.70;61.90
29321;DHT22;16323;51.130;6.612;2023-02-15T14:21:30;16.60;61.90
29321;DHT22;16323;51.130;6.612;2023-02-15T14:24:08;16.70;62.00
29321;DHT22;16323;51.130;6.612;2023-02-15T14:26:47;16.70;62.30
29321;DHT22;16323;51.130;6.612;2023-02-15T14:29:24;16.70;62.10
29321;DHT22;16323;51.130;6.612;2023-02-15T14:31:57;16.70;62.20
29321;DHT22;16323;51.130;6.612;2023-02-15T14:34:30;16.70;62.30
29321;DHT22;16323;51.130;6.612;2023-02-15T14:36:57;16.70;62.20
29321;DHT22;16323;51.130;6.612;2023-02-15T14:39:34;16.70;62.40
29321;DHT22;16323;51.130;6.612;2023-02-15T14:42:27;16.80;62.40
29321;DHT22;16323;51.130;6.612;2023-02-15T14:45:01;16.70;62.40
29321;DHT22;16323;51.130;6.612;2023-02-15T14:47:36;16.70;62.30
29321;DHT22;16323;51.130;6.612;2023-02-15T14:50:39;16.80;62.40
29321;DHT22;16323;51.130;6.612;2023-02-15T14:53:39;16.80;62.30
29321;DHT22;16323;51.130;6.612;2023-02-15T14:56:17;16.70;62.60
29321;DHT22;16323;51.130;6.612;2023-02-15T14:58:58;16.70;62.50
29321;DHT22;16323;51.130;6.612;2023-02-15T15:01:26;16.70;62.50
29321;DHT22;16323;51.130;6.612;2023-02-15T15:03:57;16.80;62.90
29321;DHT22;16323;51.130;6.612;2023-02-15T15:06:27;16.80;64.70
29321;DHT22;16323;51.130;6.612;2023-02-15T15:08:58;16.80;62.70
29321;DHT22;16323;51.130;6.612;2023-02-15T15:11:44;16.90;62.30
29321;DHT22;16323;51.130;6.612;2023-02-15T15:14:37;16.90;61.90
29321;DHT22;16323;51.130;6.612;2023-02-15T15:17:05;16.90;62.00
29321;DHT22;16323;51.130;6.612;2023-02-15T15:19:57;16.90;62.00
29321;DHT22;16323;51.130;6.612;2023-02-15T15:22:26;16.90;61.70
29321;DHT22;16323;51.130;6.612;2023-02-15T15:24:54;16.90;61.70
29321;DHT22;16323;51.130;6.612;2023-02-15T15:27:47;16.90;61.80
29321;DHT22;16323;51.130;6.612;2023-02-15T15:30:49;16.90;61.50
29321;DHT22;16323;51.130;6.612;2023-02-15T15:36:42;16.90;61.40
29321;DHT22;16323;51.130;6.612;2023-02-15T15:42:07;16.90;61.60
29321;DHT22;16323;51.130;6.612;2023-02-15T15:45:01;16.90;61.50
29321;DHT22;16323;51.130;6.612;2023-02-15T15:47:50;16.90;61.40
29321;DHT22;16323;51.130;6.612;2023-02-15T15:50:21;16.90;61.50
29321;DHT22;16323;51.130;6.612;2023-02-15T15:52:50;16.90;61.40
29321;DHT22;16323;51.130;6.612;2023-02-15T15:55:20;16.90;61.20
29321;DHT22;16323;51.130;6.612;2023-02-15T15:57:50;16.80;61.10
29321;DHT22;16323;51.130;6.612;2023-02-15T16:00:32;16.90;61.30
29321;DHT22;16323;51.130;6.612;2023-02-15T16:03:01;16.90;61.20
29321;DHT22;16323;51.130;6.612;2023-02-15T16:05:35;16.90;61.20
29321;DHT22;16323;51.130;6.612;2023-02-15T16:08:03;16.90;61.10
29321;DHT22;16323;51.130;6.612;2023-02-15T16:10:30;16.90;61.20
29321;DHT22;16323;51.130;6.612;2023-02-15T16:12:59;16.90;61.20
29321;DHT22;16323;51.130;6.612;2023-02-15T16:15:33;16.90;61.20
29321;DHT22;16323;51.130;6.612;2023-02-15T16:18:03;16.90;61.20
29321;DHT22;16323;51.130;6.612;2023-02-15T16:20:32;16.90;62.20
29321;DHT22;16323;51.130;6.612;2023-02-15T16:23:10;16.90;61.20
29321;DHT22;16323;51.130;6.612;2023-02-15T16:25:49;16.80;61.20
29321;DHT22;16323;51.130;6.612;2023-02-15T16:28:18;16.80;61.20
29321;DHT22;16323;51.130;6.612;2023-02-15T16:30:45;16.80;61.20
29321;DHT22;16323;51.130;6.612;2023-02-15T16:33:15;16.80;61.30
29321;DHT22;16323;51.130;6.612;2023-02-15T16:35:54;16.80;61.30
29321;DHT22;16323;51.130;6.612;2023-02-15T16:38:34;16.70;61.30
29321;DHT22;16323;51.130;6.612;2023-02-15T16:41:14;16.80;61.30
29321;DHT22;16323;51.130;6.612;2023-02-15T16:43:45;16.80;61.30
29321;DHT22;16323;51.130;6.612;2023-02-15T16:46:18;16.80;61.20
29321;DHT22;16323;51.130;6.612;2023-02-15T16:48:49;16.80;61.20
29321;DHT22;16323;51.130;6.612;2023-02-15T16:51:21;16.80;61.10
29321;DHT22;16323;51.130;6.612;2023-02-15T16:53:49;16.80;61.10
29321;DHT22;16323;51.130;6.612;2023-02-15T16:56:22;16.80;61.00
29321;DHT22;16323;51.130;6.612;2023-02-15T16:58:50;16.80;61.00
29321;DHT22;16323;51.130;6.612;2023-02-15T17:01:21;16.80;61.00
29321;DHT22;16323;51.130;6.612;2023-02-15T17:04:11;16.80;61.20
29321;DHT22;16323;51.130;6.612;2023-02-15T17:06:38;16.70;61.30
29321;DHT22;16323;51.130;6.612;2023-02-15T17:09:06;16.70;61.30
29321;DHT22;16323;51.130;6.612;2023-02-15T17:11:35;16.70;61.40
29321;DHT22;16323;51.130;6.612;2023-02-15T17:14:18;16.70;61.20
29321;DHT22;16323;51.130;6.612;2023-02-15T17:16:48;16.70;61.20
29321;DHT22;16323;51.130;6.612;2023-02-15T17:19:19;16.70;61.20
29321;DHT22;16323;51.130;6.612;2023-02-15T17:21:50;16.70;61.40
29321;DHT22;16323;51.130;6.612;2023-02-15T17:24:19;16.70;61.40
29321;DHT22;16323;51.130;6.612;2023-02-15T17:26:50;16.70;61.20
29321;DHT22;16323;51.130;6.612;2023-02-15T17:29:23;16.60;61.00
29321;DHT22;16323;51.130;6.612;2023-02-15T17:31:52;16.70;61.00
29321;DHT22;16323;51.130;6.612;2023-02-15T17:34:45;16.70;61.00
29321;DHT22;16323;51.130;6.612;2023-02-15T17:37:22;16.70;61.10
29321;DHT22;16323;51.130;6.612;2023-02-15T17:39:50;16.70;61.00
29321;DHT22;16323;51.130;6.612;2023-02-15T17:42:16;16.70;61.10
29321;DHT22;16323;51.130;6.612;2023-02-15T17:44:43;16.70;61.00
29321;DHT22;16323;51.130;6.612;2023-02-15T17:47:13;16.70;61.00
29321;DHT22;16323;51.130;6.612;2023-02-15T17:49:42;16.70;61.10
29321;DHT22;16323;51.130;6.612;2023-02-15T17:52:11;16.70;61.10
29321;DHT22;16323;51.130;6.612;2023-02-15T17:54:38;16.70;61.20
29321;DHT22;16323;51.130;6.612;2023-02-15T17:57:23;16.60;61.20
29321;DHT22;16323;51.130;6.612;2023-02-15T17:59:50;16.70;61.40
29321;DHT22;16323;51.130;6.612;2023-02-15T18:02:35;16.60;61.30
29321;DHT22;16323;51.130;6.612;2023-02-15T18:05:21;16.60;61.30
29321;DHT22;16323;51.130;6.612;2023-02-15T18:08:10;16.60;61.40
29321;DHT22;16323;51.130;6.612;2023-02-15T18:10:54;16.60;61.30
29321;DHT22;16323;51.130;6.612;2023-02-15T18:13:38;16.60;61.20
29321;DHT22;16323;51.130;6.612;2023-02-15T18:16:07;16.60;61.20
29321;DHT22;16323;51.130;6.612;2023-02-15T18:18:34;16.60;61.20
29321;DHT22;16323;51.130;6.612;2023-02-15T18:21:03;16.60;61.20
29321;DHT22;16323;51.130;6.612;2023-02-15T18:23:32;16.60;61.10
29321;DHT22;16323;51.130;6.612;2023-02-15T18:25:59;16.60;61.00
29321;DHT22;16323;51.130;6.612;2023-02-15T18:28:26;16.60;61.00
29321;DHT22;16323;51.130;6.612;2023-02-15T18:30:53;16.60;60.90
29321;DHT22;16323;51.130;6.612;2023-02-15T18:33:28;16.60;60.90
29321;DHT22;16323;51.130;6.612;2023-02-15T18:35:59;16.60;60.80
29321;DHT22;16323;51.130;6.612;2023-02-15T18:38:28;16.60;60.80
29321;DHT22;16323;51.130;6.612;2023-02-15T18:40:55;16.60;60.90
29321;DHT22;16323;51.130;6.612;2023-02-15T18:43:22;16.60;60.90
29321;DHT22;16323;51.130;6.612;2023-02-15T18:45:49;16.60;60.90
29321;DHT22;16323;51.130;6.612;2023-02-15T18:48:15;16.60;60.90
29321;DHT22;16323;51.130;6.612;2023-02-15T18:50:42;16.60;60.80
29321;DHT22;16323;51.130;6.612;2023-02-15T18:53:15;16.60;60.90
29321;DHT22;16323;51.130;6.612;2023-02-15T18:55:44;16.50;60.80
29321;DHT22;16323;51.130;6.612;2023-02-15T18:58:15;16.50;60.80
29321;DHT22;16323;51.130;6.612;2023-02-15T19:00:42;16.50;60.80
29321;DHT22;16323;51.130;6.612;2023-02-15T19:03:12;16.50;60.70
29321;DHT22;16323;51.130;6.612;2023-02-15T19:05:40;16.50;60.70
29321;DHT22;16323;51.130;6.612;2023-02-15T19:08:15;16.50;60.80
29321;DHT22;16323;51.130;6.612;2023-02-15T19:10:44;16.50;60.80
29321;DHT22;16323;51.130;6.612;2023-02-15T19:13:12;16.50;60.70
29321;DHT22;16323;51.130;6.612;2023-02-15T19:15:40;16.40;60.50
29321;DHT22;16323;51.130;6.612;2023-02-15T19:18:06;16.40;60.60
29321;DHT22;16323;51.130;6.612;2023-02-15T19:20:36;16.40;60.40
29321;DHT22;16323;51.130;6.612;2023-02-15T19:23:05;16.50;60.40
29321;DHT22;16323;51.130;6.612;2023-02-15T19:25:34;16.50;60.30
29321;DHT22;16323;51.130;6.612;2023-02-15T19:28:08;16.50;60.30
29321;DHT22;16323;51.130;6.612;2023-02-15T19:30:36;16.50;60.40
29321;DHT22;16323;51.130;6.612;2023-02-15T19:33:03;16.50;60.30
29321;DHT22;16323;51.130;6.612;2023-02-15T19:35:32;16.50;60.40
29321;DHT22;16323;51.130;6.612;2023-02-15T19:38:02;16.50;60.40
29321;DHT22;16323;51.130;6.612;2023-02-15T19:40:32;16.50;60.20
29321;DHT22;16323;51.130;6.612;2023-02-15T19:42:59;16.50;60.30
29321;DHT22;16323;51.130;6.612;2023-02-15T19:45:29;16.50;60.40
29321;DHT22;16323;51.130;6.612;2023-02-15T19:47:56;16.60;60.40
29321;DHT22;16323;51.130;6.612;2023-02-15T19:50:25;16.60;60.20
29321;DHT22;16323;51.130;6.612;2023-02-15T19:52:53;16.60;60.10
29321;DHT22;16323;51.130;6.612;2023-02-15T19:55:22;16.60;60.10
29321;DHT22;16323;51.130;6.612;2023-02-15T19:57:50;16.60;60.10
29321;DHT22;16323;51.130;6.612;2023-02-15T20:00:19;16.60;60.10
29321;DHT22;16323;51.130;6.612;2023-02-15T20:02:48;16.60;60.10
29321;DHT22;16323;51.130;6.612;2023-02-15T20:05:15;16.60;60.00
29321;DHT22;16323;51.130;6.612;2023-02-15T20:07:44;16.60;60.00
29321;DHT22;16323;51.130;6.612;2023-02-15T20:10:15;16.60;59.90
29321;DHT22;16323;51.130;6.612;2023-02-15T20:12:44;16.60;59.80
29321;DHT22;16323;51.130;6.612;2023-02-15T20:15:17;16.60;59.70
29321;DHT22;16323;51.130;6.612;2023-02-15T20:17:44;16.60;59.50
29321;DHT22;16323;51.130;6.612;2023-02-15T20:20:13;16.60;59.30
29321;DHT22;16323;51.130;6.612;2023-02-15T20:22:40;16.70;59.50
29321;DHT22;16323;51.130;6.612;2023-02-15T20:25:11;16.70;59.40
29321;DHT22;16323;51.130;6.612;2023-02-15T20:27:39;16.70;59.40
29321;DHT22;16323;51.130;6.612;2023-02-15T20:30:14;16.60;59.30
29321;DHT22;16323;51.130;6.612;2023-02-15T20:32:41;16.60;59.30
29321;DHT22;16323;51.130;6.612;2023-02-15T20:35:13;16.60;59.30
29321;DHT22;16323;51.130;6.612;2023-02-15T20:37:41;16.60;59.30
29321;DHT22;16323;51.130;6.612;2023-02-15T20:40:14;16.60;59.40
29321;DHT22;16323;51.130;6.612;2023-02-15T20:42:40;16.60;59.30
29321;DHT22;16323;51.130;6.612;2023-02-15T20:45:16;16.60;59.40
29321;DHT22;16323;51.130;6.612;2023-02-15T20:47:44;16.60;59.40
29321;DHT22;16323;51.130;6.612;2023-02-15T20:50:16;16.50;60.40
29321;DHT22;16323;51.130;6.612;2023-02-15T20:52:44;16.60;59.40
29321;DHT22;16323;51.130;6.612;2023-02-15T20:55:13;16.50;59.20
29321;DHT22;16323;51.130;6.612;2023-02-15T20:57:40;16.60;59.20
29321;DHT22;16323;51.130;6.612;2023-02-15T21:00:15;16.60;59.20
29321;DHT22;16323;51.130;6.612;2023-02-15T21:02:44;16.60;59.10
29321;DHT22;16323;51.130;6.612;2023-02-15T21:05:18;16.60;59.20
29321;DHT22;16323;51.130;6.612;2023-02-15T21:07:46;16.60;59.10
29321;DHT22;16323;51.130;6.612;2023-02-15T21:10:15;16.60;58.80
29321;DHT22;16323;51.130;6.612;2023-02-15T21:12:42;16.60;57.90
29321;DHT22;16323;51.130;6.612;2023-02-15T21:15:28;16.50;57.10
29321;DHT22;16323;51.130;6.612;2023-02-15T21:17:56;16.50;57.80
29321;DHT22;16323;51.130;6.612;2023-02-15T21:20:27;16.50;58.30
29321;DHT22;16323;51.130;6.612;2023-02-15T21:22:55;16.50;58.40
29321;DHT22;16323;51.130;6.612;2023-02-15T21:25:26;16.50;58.40
29321;DHT22;16323;51.130;6.612;2023-02-15T21:27:53;16.50;58.50
29321;DHT22;16323;51.130;6.612;2023-02-15T21:30:22;16.50;58.50
29321;DHT22;16323;51.130;6.612;2023-02-15T21:32:50;16.50;58.60
29321;DHT22;16323;51.130;6.612;2023-02-15T21:35:18;16.50;58.60
29321;DHT22;16323;51.130;6.612;2023-02-15T21:37:48;16.50;58.70
29321;DHT22;16323;51.130;6.612;2023-02-15T21:40:17;16.50;58.70
29321;DHT22;16323;51.130;6.612;2023-02-15T21:42:44;16.50;58.80
29321;DHT22;16323;51.130;6.612;2023-02-15T21:45:28;16.50;59.30
29321;DHT22;16323;51.130;6.612;2023-02-15T21:48:13;16.50;59.50
29321;DHT22;16323;51.130;6.612;2023-02-15T21:50:40;16.50;59.30
29321;DHT22;16323;51.130;6.612;2023-02-15T21:53:28;16.50;59.10
29321;DHT22;16323;51.130;6.612;2023-02-15T21:55:58;16.50;59.20
29321;DHT22;16323;51.130;6.612;2023-02-15T21:58:27;16.50;59.20
29321;DHT22;16323;51.130;6.612;2023-02-15T22:00:55;16.50;59.20
29321;DHT22;16323;51.130;6.612;2023-02-15T22:03:23;16.50;59.30
29321;DHT22;16323;51.130;6.612;2023-02-15T22:05:50;16.50;59.30
29321;DHT22;16323;51.130;6.612;2023-02-15T22:08:17;16.40;60.30
29321;DHT22;16323;51.130;6.612;2023-02-15T22:10:46;16.40;59.30
29321;DHT22;16323;51.130;6.612;2023-02-15T22:13:15;16.40;59.40
29321;DHT22;16323;51.130;6.612;2023-02-15T22:15:44;16.40;59.30
29321;DHT22;16323;51.130;6.612;2023-02-15T22:18:20;16.40;59.40
29321;DHT22;16323;51.130;6.612;2023-02-15T22:20:48;16.40;59.40
29321;DHT22;16323;51.130;6.612;2023-02-15T22:23:15;16.40;59.20
29321;DHT22;16323;51.130;6.612;2023-02-15T22:25:46;16.40;59.20
29321;DHT22;16323;51.130;6.612;2023-02-15T22:28:15;16.40;59.20
29321;DHT22;16323;51.130;6.612;2023-02-15T22:30:43;16.40;59.20
29321;DHT22;16323;51.130;6.612;2023-02-15T22:33:21;16.40;59.20
29321;DHT22;16323;51.130;6.612;2023-02-15T22:35:49;16.40;59.00
29321;DHT22;16323;51.130;6.612;2023-02-15T22:38:16;16.40;59.00
29321;DHT22;16323;51.130;6.612;2023-02-15T22:40:44;16.40;59.10
29321;DHT22;16323;51.130;6.612;2023-02-15T22:43:20;16.40;59.10
29321;DHT22;16323;51.130;6.612;2023-02-15T22:45:49;16.40;58.90
29321;DHT22;16323;51.130;6.612;2023-02-15T22:48:19;16.40;58.80
29321;DHT22;16323;51.130;6.612;2023-02-15T22:50:46;16.40;58.70
29321;DHT22;16323;51.130;6.612;2023-02-15T22:53:13;16.40;58.60
29321;DHT22;16323;51.130;6.612;2023-02-15T22:55:40;16.40;58.50
29321;DHT22;16323;51.130;6.612;2023-02-15T22:58:16;16.40;58.60
29321;DHT22;16323;51.130;6.612;2023-02-15T23:00:44;16.40;58.60
29321;DHT22;16323;51.130;6.612;2023-02-15T23:03:15;16.40;58.50
29321;DHT22;16323;51.130;6.612;2023-02-15T23:05:43;16.40;58.10
29321;DHT22;16323;51.130;6.612;2023-02-15T23:08:10;16.40;57.40
29321;DHT22;16323;51.130;6.612;2023-02-15T23:10:38;16.40;56.10
29321;DHT22;16323;51.130;6.612;2023-02-15T23:13:18;16.30;55.30
29321;DHT22;16323;51.130;6.612;2023-02-15T23:15:51;16.30;55.10
29321;DHT22;16323;51.130;6.612;2023-02-15T23:18:20;16.30;54.50
29321;DHT22;16323;51.130;6.612;2023-02-15T23:20:50;16.30;54.20
29321;DHT22;16323;51.130;6.612;2023-02-15T23:23:21;16.30;55.40
29321;DHT22;16323;51.130;6.612;2023-02-15T23:25:49;16.30;55.90
29321;DHT22;16323;51.130;6.612;2023-02-15T23:28:21;16.30;55.00
29321;DHT22;16323;51.130;6.612;2023-02-15T23:30:49;16.20;54.40
29321;DHT22;16323;51.130;6.612;2023-02-15T23:33:18;16.20;54.00
29321;DHT22;16323;51.130;6.612;2023-02-15T23:35:45;16.20;55.10
29321;DHT22;16323;51.130;6.612;2023-02-15T23:38:23;16.20;53.80
29321;DHT22;16323;51.130;6.612;2023-02-15T23:40:53;16.30;54.30
29321;DHT22;16323;51.130;6.612;2023-02-15T23:43:42;16.30;54.40
29321;DHT22;16323;51.130;6.612;2023-02-15T23:46:20;16.40;54.70
29321;DHT22;16323;51.130;6.612;2023-02-15T23:48:48;16.30;54.80
29321;DHT22;16323;51.130;6.612;2023-02-15T23:51:14;16.30;55.00
29321;DHT22;16323;51.130;6.612;2023-02-15T23:53:42;16.40;55.10
29321;DHT22;16323;51.130;6.612;2023-02-15T23:56:11;16.40;55.20
29321;DHT22;16323;51.130;6.612;2023-02-15T23:58:41;16.40;55.30
